createdAt,value
2018-11-06T00:01:03.927Z,5.60
2018-11-06T00:03:38.283Z,5.60
2018-11-06T00:06:06.718Z,5.60
2018-11-06T00:08:35.115Z,5.70
2018-11-06T00:11:03.524Z,5.70
2018-11-06T00:13:31.929Z,5.70
2018-11-06T00:16:00.344Z,5.70
2018-11-06T00:18:28.770Z,5.70
2018-11-06T00:20:57.201Z,5.80
2018-11-06T00:23:25.659Z,5.80
2018-11-06T00:25:54.104Z,5.80
2018-11-06T00:28:22.529Z,5.80
2018-11-06T00:30:50.947Z,5.90
2018-11-06T00:33:19.319Z,5.90
2018-11-06T00:35:47.728Z,5.90
2018-11-06T00:38:16.169Z,5.90
2018-11-06T00:40:45.056Z,5.90
2018-11-06T00:43:13.491Z,6.00
2018-11-06T00:45:41.792Z,6.00
2018-11-06T00:48:10.114Z,6.00
2018-11-06T00:50:39.207Z,6.00
2018-11-06T00:53:07.644Z,6.10
2018-11-06T00:55:36.071Z,6.10
2018-11-06T00:58:04.505Z,6.10
2018-11-06T01:00:32.948Z,6.10
2018-11-06T01:03:01.374Z,6.10
2018-11-06T01:05:29.840Z,6.10
2018-11-06T01:07:58.287Z,6.10
2018-11-06T01:10:27.243Z,6.10
2018-11-06T01:12:57.810Z,6.20
2018-11-06T01:15:31.319Z,6.10
2018-11-06T01:18:01.554Z,6.20
2018-11-06T01:20:29.968Z,6.20
2018-11-06T01:22:58.448Z,6.20
2018-11-06T01:25:26.938Z,6.20
2018-11-06T01:27:55.296Z,6.20
2018-11-06T01:30:23.680Z,6.20
2018-11-06T01:32:52.066Z,6.20
2018-11-06T01:35:20.486Z,6.20
2018-11-06T01:37:48.878Z,6.20
2018-11-06T01:40:18.674Z,6.20
2018-11-06T01:42:47.542Z,6.20
2018-11-06T01:45:17.324Z,6.20
2018-11-06T01:47:45.798Z,6.20
2018-11-06T01:50:16.908Z,6.20
2018-11-06T01:52:46.243Z,6.30
2018-11-06T01:55:14.692Z,6.20
2018-11-06T01:57:43.132Z,6.30
2018-11-06T02:00:14.060Z,6.20
2018-11-06T02:02:42.517Z,6.30
2018-11-06T02:05:14.133Z,6.30
2018-11-06T02:07:44.047Z,6.30
2018-11-06T02:10:13.988Z,6.30
2018-11-06T02:12:43.336Z,6.30
2018-11-06T02:15:11.773Z,6.30
2018-11-06T02:17:41.504Z,6.30
2018-11-06T02:20:10.871Z,6.20
2018-11-06T02:22:40.427Z,6.20
2018-11-06T02:25:12.959Z,6.20
2018-11-06T02:27:41.370Z,6.20
2018-11-06T02:30:11.495Z,6.20
2018-11-06T02:32:40.350Z,6.20
2018-11-06T02:35:08.756Z,6.20
2018-11-06T02:37:37.754Z,6.20
2018-11-06T02:40:06.924Z,6.30
2018-11-06T02:42:35.336Z,6.30
2018-11-06T02:45:03.775Z,6.30
2018-11-06T02:47:32.160Z,6.30
2018-11-06T02:50:00.525Z,6.30
2018-11-06T02:52:28.906Z,6.20
2018-11-06T02:54:57.328Z,6.20
2018-11-06T02:57:25.732Z,6.20
2018-11-06T02:59:54.153Z,6.20
2018-11-06T03:02:22.619Z,6.20
2018-11-06T03:04:51.230Z,6.20
2018-11-06T03:07:20.539Z,6.20
2018-11-06T03:09:50.615Z,6.20
2018-11-06T03:12:19.016Z,6.20
2018-11-06T03:14:47.415Z,6.20
2018-11-06T03:17:15.828Z,6.20
2018-11-06T03:19:44.207Z,6.20
2018-11-06T03:22:12.771Z,6.20
2018-11-06T03:24:41.207Z,6.20
2018-11-06T03:27:09.749Z,6.20
2018-11-06T03:29:38.072Z,6.20
2018-11-06T03:32:06.649Z,6.20
2018-11-06T03:34:35.069Z,6.20
2018-11-06T03:37:03.593Z,6.20
2018-11-06T03:39:32.005Z,6.20
2018-11-06T03:42:00.520Z,6.20
2018-11-06T03:44:28.998Z,6.20
2018-11-06T03:46:57.421Z,6.20
2018-11-06T03:49:25.831Z,6.10
2018-11-06T03:51:54.193Z,6.20
2018-11-06T03:54:22.515Z,6.20
2018-11-06T03:56:50.948Z,6.20
2018-11-06T03:59:19.659Z,6.20
2018-11-06T04:01:48.694Z,6.20
2018-11-06T04:04:17.092Z,6.20
2018-11-06T04:06:45.543Z,6.20
2018-11-06T04:09:14.373Z,6.20
2018-11-06T04:11:42.823Z,6.20
2018-11-06T04:14:11.678Z,6.20
2018-11-06T04:16:40.251Z,6.20
2018-11-06T04:19:09.157Z,6.20
2018-11-06T04:21:38.794Z,6.20
2018-11-06T04:24:15.052Z,6.20
2018-11-06T04:26:43.541Z,6.20
2018-11-06T04:29:11.961Z,6.20
2018-11-06T04:31:40.771Z,6.20
2018-11-06T04:34:09.662Z,6.20
2018-11-06T04:36:38.089Z,6.30
2018-11-06T04:39:09.742Z,6.20
2018-11-06T04:41:38.136Z,6.30
2018-11-06T04:44:07.124Z,6.30
2018-11-06T04:46:35.765Z,6.30
2018-11-06T04:49:04.568Z,6.30
2018-11-06T04:51:33.019Z,6.20
2018-11-06T04:54:02.228Z,6.20
2018-11-06T04:56:31.305Z,6.20
2018-11-06T04:58:59.693Z,6.20
2018-11-06T05:01:28.298Z,6.30
2018-11-06T05:03:56.739Z,6.30
2018-11-06T05:06:25.151Z,6.30
2018-11-06T05:08:53.533Z,6.30
2018-11-06T05:11:21.935Z,6.30
2018-11-06T05:13:50.459Z,6.30
2018-11-06T05:16:19.272Z,6.30
2018-11-06T05:18:47.691Z,6.30
2018-11-06T05:21:16.288Z,6.30
2018-11-06T05:23:44.786Z,6.30
2018-11-06T05:26:13.944Z,6.30
2018-11-06T05:28:42.365Z,6.30
2018-11-06T05:31:10.755Z,6.30
2018-11-06T05:33:39.172Z,6.30
2018-11-06T05:36:07.645Z,6.30
2018-11-06T05:38:36.163Z,6.30
2018-11-06T05:41:06.382Z,6.30
2018-11-06T05:43:35.252Z,6.30
2018-11-06T05:46:03.673Z,6.30
2018-11-06T05:48:32.099Z,6.30
2018-11-06T05:51:00.507Z,6.40
2018-11-06T05:53:28.924Z,6.40
2018-11-06T05:56:00.088Z,6.40
2018-11-06T05:58:28.572Z,6.40
2018-11-06T06:00:56.955Z,6.40
2018-11-06T06:03:25.400Z,6.40
2018-11-06T06:05:54.096Z,6.50
2018-11-06T06:08:22.542Z,6.50
2018-11-06T06:10:50.981Z,6.50
2018-11-06T06:13:19.391Z,6.50
2018-11-06T06:15:47.827Z,6.50
2018-11-06T06:18:16.204Z,6.50
2018-11-06T06:20:44.650Z,6.60
2018-11-06T06:23:13.271Z,6.60
2018-11-06T06:25:41.675Z,6.60
2018-11-06T06:28:10.297Z,6.60
2018-11-06T06:30:38.728Z,6.70
2018-11-06T06:33:07.152Z,6.70
2018-11-06T06:35:35.529Z,6.70
2018-11-06T06:38:04.040Z,6.70
2018-11-06T06:40:32.519Z,6.80
2018-11-06T06:43:00.924Z,6.80
2018-11-06T06:45:29.455Z,6.90
2018-11-06T06:47:57.983Z,6.90
2018-11-06T06:50:26.462Z,7.00
2018-11-06T06:52:54.986Z,7.00
2018-11-06T06:55:23.431Z,7.00
2018-11-06T06:57:51.820Z,7.10
2018-11-06T07:00:21.447Z,7.20
2018-11-06T07:02:49.892Z,7.20
2018-11-06T07:05:20.044Z,7.30
2018-11-06T07:07:48.526Z,7.30
2018-11-06T07:10:18.164Z,7.40
2018-11-06T07:12:47.426Z,7.40
2018-11-06T07:15:17.098Z,7.50
2018-11-06T07:17:46.496Z,7.60
2018-11-06T07:20:16.220Z,7.70
2018-11-06T07:22:44.685Z,7.70
2018-11-06T07:25:13.685Z,7.80
2018-11-06T07:27:42.955Z,7.90
2018-11-06T07:30:14.667Z,8.00
2018-11-06T07:32:43.792Z,8.10
2018-11-06T07:35:12.959Z,8.20
2018-11-06T07:37:41.668Z,8.30
2018-11-06T07:40:11.923Z,8.40
2018-11-06T07:42:40.751Z,8.50
2018-11-06T07:45:11.491Z,8.60
2018-11-06T07:47:39.892Z,8.70
2018-11-06T07:50:09.258Z,8.70
2018-11-06T07:52:38.323Z,8.80
2018-11-06T07:55:08.503Z,8.80
2018-11-06T07:57:36.876Z,8.90
2018-11-06T08:00:08.120Z,9.00
2018-11-06T08:02:36.496Z,9.10
2018-11-06T08:05:05.433Z,9.20
2018-11-06T08:07:34.059Z,9.30
2018-11-06T08:10:02.527Z,9.40
2018-11-06T08:12:31.400Z,9.50
2018-11-06T08:14:59.806Z,9.50
2018-11-06T08:17:28.275Z,9.60
2018-11-06T08:19:56.688Z,9.70
2018-11-06T08:22:25.133Z,9.80
2018-11-06T08:24:53.491Z,9.90
2018-11-06T08:27:21.952Z,10.00
2018-11-06T08:29:50.433Z,10.10
2018-11-06T08:32:19.095Z,10.20
2018-11-06T08:34:48.015Z,10.30
2018-11-06T08:37:16.429Z,10.40
2018-11-06T08:39:45.097Z,10.40
2018-11-06T08:42:13.590Z,10.40
2018-11-06T08:44:41.995Z,10.40
2018-11-06T08:47:10.410Z,10.40
2018-11-06T08:49:38.796Z,10.50
2018-11-06T08:52:07.444Z,10.40
2018-11-06T08:54:35.960Z,10.50
2018-11-06T08:57:04.333Z,10.50
2018-11-06T08:59:32.755Z,10.60
2018-11-06T09:02:01.256Z,10.60
2018-11-06T09:04:29.827Z,10.60
2018-11-06T09:06:58.300Z,10.40
2018-11-06T09:09:26.747Z,10.40
2018-11-06T09:11:55.120Z,10.40
2018-11-06T09:14:23.608Z,10.40
2018-11-06T09:16:52.057Z,10.60
2018-11-06T09:19:20.399Z,10.80
2018-11-06T09:21:48.801Z,10.90
2018-11-06T09:24:17.226Z,11.10
2018-11-06T09:26:45.680Z,11.30
2018-11-06T09:29:14.985Z,11.40
2018-11-06T09:31:43.510Z,11.60
2018-11-06T09:34:12.677Z,11.70
2018-11-06T09:36:41.280Z,11.80
2018-11-06T09:39:10.664Z,12.00
2018-11-06T09:41:39.440Z,12.10
2018-11-06T09:44:07.996Z,12.40
2018-11-06T09:46:36.987Z,12.70
2018-11-06T09:49:05.483Z,13.00
2018-11-06T09:51:33.887Z,13.20
2018-11-06T09:54:02.364Z,13.20
2018-11-06T09:56:30.847Z,13.00
2018-11-06T09:58:59.216Z,12.90
2018-11-06T10:01:27.660Z,12.80
2018-11-06T10:03:56.074Z,12.80
2018-11-06T10:06:24.591Z,12.80
2018-11-06T10:08:53.528Z,13.10
2018-11-06T10:11:21.949Z,13.50
2018-11-06T10:13:50.303Z,14.30
2018-11-06T10:16:18.708Z,15.60
2018-11-06T10:18:47.073Z,16.90
2018-11-06T10:21:15.539Z,18.20
2018-11-06T10:23:44.028Z,19.50
2018-11-06T10:26:12.907Z,19.90
2018-11-06T10:28:41.355Z,20.10
2018-11-06T10:31:09.823Z,20.40
2018-11-06T10:33:38.242Z,20.70
2018-11-06T10:36:06.707Z,21.30
2018-11-06T10:38:35.156Z,21.70
2018-11-06T10:41:03.518Z,22.20
2018-11-06T10:43:31.880Z,22.60
2018-11-06T10:46:00.320Z,22.70
2018-11-06T10:48:28.748Z,22.90
2018-11-06T10:50:57.227Z,23.30
2018-11-06T10:53:25.669Z,23.70
2018-11-06T10:55:54.092Z,24.10
2018-11-06T10:58:22.588Z,24.60
2018-11-06T11:00:56.370Z,24.90
2018-11-06T11:03:33.085Z,24.80
2018-11-06T11:06:01.712Z,24.50
2018-11-06T11:08:30.200Z,24.00
2018-11-06T11:10:58.901Z,23.60
2018-11-06T11:13:27.441Z,23.50
2018-11-06T11:15:57.673Z,23.50
2018-11-06T11:18:26.090Z,23.00
2018-11-06T11:20:54.552Z,22.50
2018-11-06T11:23:22.982Z,22.20
2018-11-06T11:25:51.433Z,22.40
2018-11-06T11:28:19.843Z,22.90
2018-11-06T11:30:48.437Z,23.40
2018-11-06T11:33:16.889Z,23.80
2018-11-06T11:35:45.311Z,24.00
2018-11-06T11:38:13.816Z,24.20
2018-11-06T11:40:42.314Z,24.30
2018-11-06T11:43:10.772Z,24.20
2018-11-06T11:45:39.423Z,24.30
2018-11-06T11:48:07.806Z,24.20
2018-11-06T11:50:36.199Z,24.00
2018-11-06T11:53:07.716Z,23.60
2018-11-06T11:55:36.298Z,23.10
2018-11-06T11:58:04.741Z,22.70
2018-11-06T12:00:37.140Z,22.40
2018-11-06T12:03:06.651Z,22.10
2018-11-06T12:05:35.034Z,21.60
2018-11-06T12:08:03.484Z,21.30
2018-11-06T12:10:31.910Z,21.00
2018-11-06T12:13:00.326Z,20.90
2018-11-06T12:15:28.998Z,20.80
2018-11-06T12:17:57.425Z,20.80
2018-11-06T12:20:25.748Z,20.70
2018-11-06T12:22:54.687Z,20.60
2018-11-06T12:25:23.359Z,20.50
2018-11-06T12:27:51.427Z,20.40
2018-11-06T12:30:20.001Z,20.30
2018-11-06T12:32:48.388Z,20.50
2018-11-06T12:35:16.883Z,20.70
2018-11-06T12:37:45.274Z,20.90
2018-11-06T12:40:14.170Z,21.10
2018-11-06T12:42:43.326Z,21.20
2018-11-06T12:45:13.036Z,21.10
2018-11-06T12:47:42.024Z,21.00
2018-11-06T12:50:10.627Z,20.90
2018-11-06T12:52:39.500Z,20.70
2018-11-06T12:55:09.125Z,20.60
2018-11-06T12:57:37.692Z,20.60
2018-11-06T13:00:08.176Z,20.60
2018-11-06T13:02:36.548Z,20.50
2018-11-06T13:05:05.081Z,19.90
2018-11-06T13:07:33.463Z,19.40
2018-11-06T13:10:01.919Z,18.80
2018-11-06T13:12:30.340Z,18.30
2018-11-06T13:14:59.322Z,17.90
2018-11-06T13:17:27.260Z,17.40
2018-11-06T13:19:55.664Z,17.10
2018-11-06T13:22:23.972Z,16.90
2018-11-06T13:24:52.398Z,16.80
2018-11-06T13:27:21.355Z,16.80
2018-11-06T13:29:49.743Z,16.60
2018-11-06T13:32:18.247Z,16.30
2018-11-06T13:34:47.393Z,16.00
2018-11-06T13:37:15.879Z,15.80
2018-11-06T13:39:44.224Z,15.60
2018-11-06T13:42:14.654Z,15.50
2018-11-06T13:44:43.868Z,15.40
2018-11-06T13:47:12.037Z,15.40
2018-11-06T13:49:40.442Z,15.40
2018-11-06T13:52:08.849Z,15.40
2018-11-06T13:54:37.214Z,15.30
2018-11-06T13:57:05.875Z,15.20
2018-11-06T13:59:34.264Z,15.10
2018-11-06T14:02:02.936Z,15.00
2018-11-06T14:04:31.445Z,15.00
2018-11-06T14:06:59.942Z,14.80
2018-11-06T14:09:28.558Z,14.60
2018-11-06T14:11:56.996Z,14.50
2018-11-06T14:14:25.476Z,14.40
2018-11-06T14:16:53.918Z,14.40
2018-11-06T14:19:22.428Z,14.30
2018-11-06T14:21:50.921Z,14.20
2018-11-06T14:24:19.468Z,14.00
2018-11-06T14:26:48.040Z,13.90
2018-11-06T14:29:16.572Z,13.70
2018-11-06T14:31:45.102Z,13.60
2018-11-06T14:34:14.037Z,13.50
2018-11-06T14:36:42.604Z,13.30
2018-11-06T14:39:11.440Z,13.20
2018-11-06T14:41:39.886Z,13.10
2018-11-06T14:44:08.367Z,12.90
2018-11-06T14:46:36.772Z,12.80
2018-11-06T14:49:07.717Z,12.70
2018-11-06T14:51:36.345Z,12.60
2018-11-06T14:54:05.011Z,12.50
2018-11-06T14:56:33.468Z,12.40
2018-11-06T14:59:02.543Z,12.30
2018-11-06T15:01:30.936Z,12.30
2018-11-06T15:04:00.445Z,12.20
2018-11-06T15:06:29.022Z,12.10
2018-11-06T15:08:57.557Z,12.00
2018-11-06T15:11:25.992Z,11.90
2018-11-06T15:13:54.448Z,11.90
2018-11-06T15:16:22.871Z,11.80
2018-11-06T15:21:58.304Z,11.70
2018-11-06T15:24:49.222Z,11.60
2018-11-06T15:27:17.696Z,11.50
2018-11-06T15:29:46.128Z,11.40
2018-11-06T15:32:14.755Z,11.30
2018-11-06T15:34:43.991Z,11.20
2018-11-06T15:37:12.480Z,11.20
2018-11-06T15:39:41.286Z,11.20
2018-11-06T15:42:09.736Z,11.10
2018-11-06T15:44:38.156Z,11.10
2018-11-06T15:47:06.640Z,11.00
2018-11-06T15:49:35.076Z,10.90
2018-11-06T15:52:03.523Z,10.80
2018-11-06T15:54:32.081Z,10.70
2018-11-06T15:57:01.012Z,10.60
2018-11-06T15:59:29.565Z,10.50
2018-11-06T16:01:57.924Z,10.50
2018-11-06T16:04:26.483Z,10.40
2018-11-06T16:06:54.984Z,10.40
2018-11-06T16:09:24.324Z,10.30
2018-11-06T16:11:52.828Z,10.30
2018-11-06T16:14:21.432Z,10.20
2018-11-06T16:16:50.433Z,10.10
2018-11-06T16:19:21.157Z,10.00
2018-11-06T16:21:49.491Z,10.00
2018-11-06T16:24:18.616Z,9.90
2018-11-06T16:26:47.368Z,9.90
2018-11-06T16:29:16.535Z,9.90
2018-11-06T16:31:45.359Z,9.90
2018-11-06T16:34:13.805Z,9.80
2018-11-06T16:36:42.674Z,9.70
2018-11-06T16:39:12.644Z,9.60
2018-11-06T16:41:41.429Z,9.50
2018-11-06T16:44:09.872Z,9.50
2018-11-06T16:46:38.279Z,9.40
2018-11-06T16:49:06.924Z,9.40
2018-11-06T16:51:35.505Z,9.30
2018-11-06T16:54:04.025Z,9.30
2018-11-06T16:56:32.544Z,9.20
2018-11-06T16:59:00.974Z,9.20
2018-11-06T17:01:29.691Z,9.20
2018-11-06T17:03:58.309Z,9.10
2018-11-06T17:06:32.321Z,9.10
2018-11-06T17:09:00.656Z,9.00
2018-11-06T17:11:29.112Z,9.00
2018-11-06T17:13:57.579Z,9.00
2018-11-06T17:16:25.984Z,8.90
2018-11-06T17:18:54.479Z,8.90
2018-11-06T17:21:22.941Z,8.80
2018-11-06T17:23:51.395Z,8.80
2018-11-06T17:26:22.103Z,8.70
2018-11-06T17:29:05.247Z,8.60
2018-11-06T17:31:33.950Z,8.60
2018-11-06T17:34:02.433Z,8.50
2018-11-06T17:36:31.334Z,8.50
2018-11-06T17:39:00.208Z,8.40
2018-11-06T17:41:28.683Z,8.40
2018-11-06T17:43:57.135Z,8.30
2018-11-06T17:46:25.593Z,8.30
2018-11-06T17:49:00.070Z,8.20
2018-11-06T17:51:28.536Z,8.10
2018-11-06T17:53:56.905Z,8.10
2018-11-06T17:56:25.334Z,8.00
2018-11-06T17:58:53.768Z,8.00
2018-11-06T18:01:22.208Z,7.90
2018-11-06T18:03:50.937Z,7.90
2018-11-06T18:06:24.299Z,7.80
2018-11-06T18:08:52.687Z,7.80
2018-11-06T18:11:21.068Z,7.80
2018-11-06T18:13:49.524Z,7.70
2018-11-06T18:16:18.296Z,7.70
2018-11-06T18:18:46.787Z,7.60
2018-11-06T18:21:15.272Z,7.60
2018-11-06T18:23:43.699Z,7.60
2018-11-06T18:26:12.128Z,7.50
2018-11-06T18:28:40.536Z,7.50
2018-11-06T18:31:08.980Z,7.50
2018-11-06T18:33:37.431Z,7.50
2018-11-06T18:36:05.864Z,7.50
2018-11-06T18:38:34.287Z,7.50
2018-11-06T18:41:02.712Z,7.50
2018-11-06T18:43:37.907Z,7.50
2018-11-06T18:46:06.334Z,7.60
2018-11-06T18:48:34.797Z,7.70
2018-11-06T18:51:03.149Z,7.70
2018-11-06T18:53:31.676Z,7.80
2018-11-06T18:56:00.118Z,7.80
2018-11-06T18:58:31.161Z,7.90
2018-11-06T19:00:59.640Z,7.90
2018-11-06T19:03:28.862Z,8.00
2018-11-06T19:05:59.520Z,8.10
2018-11-06T19:08:27.980Z,8.10
2018-11-06T19:10:56.461Z,8.20
2018-11-06T19:13:24.917Z,8.20
2018-11-06T19:15:53.394Z,8.30
2018-11-06T19:18:22.037Z,8.30
2018-11-06T19:20:50.491Z,8.40
2018-11-06T19:23:18.899Z,8.40
2018-11-06T19:25:47.326Z,8.40
2018-11-06T19:28:22.263Z,8.40
2018-11-06T19:30:50.658Z,8.50
2018-11-06T19:33:19.020Z,8.50
2018-11-06T19:35:47.520Z,8.60
2018-11-06T19:38:16.188Z,8.60
2018-11-06T19:40:45.182Z,8.70
2018-11-06T19:43:13.660Z,8.70
2018-11-06T19:45:42.194Z,8.70
2018-11-06T19:48:10.663Z,8.80
2018-11-06T19:50:39.131Z,8.80
2018-11-06T19:53:07.662Z,8.80
2018-11-06T19:55:38.379Z,8.80
2018-11-06T19:58:06.819Z,8.90
2018-11-06T20:00:35.395Z,8.90
2018-11-06T20:03:04.005Z,8.90
2018-11-06T20:05:32.436Z,8.90
2018-11-06T20:08:00.872Z,8.90
2018-11-06T20:10:29.445Z,9.00
2018-11-06T20:12:57.920Z,9.00
2018-11-06T20:15:26.385Z,9.00
2018-11-06T20:17:54.876Z,9.00
2018-11-06T20:20:24.605Z,9.00
2018-11-06T20:22:53.078Z,9.00
2018-11-06T20:25:21.507Z,9.00
2018-11-06T20:27:52.197Z,9.00
2018-11-06T20:30:22.052Z,9.00
2018-11-06T20:33:13.242Z,9.00
2018-11-06T20:35:41.802Z,9.00
2018-11-06T20:38:10.216Z,9.00
2018-11-06T20:40:38.776Z,9.00
2018-11-06T20:43:07.438Z,9.10
2018-11-06T20:45:35.731Z,9.00
2018-11-06T20:48:04.556Z,9.10
2018-11-06T20:50:33.140Z,9.10
2018-11-06T20:53:02.091Z,9.00
2018-11-06T20:55:30.623Z,8.80
2018-11-06T20:57:59.154Z,8.70
2018-11-06T21:00:30.311Z,8.60
2018-11-06T21:03:01.116Z,8.50
2018-11-06T21:05:29.782Z,8.40
2018-11-06T21:07:58.304Z,8.40
2018-11-06T21:10:28.332Z,8.50
2018-11-06T21:12:56.853Z,8.50
2018-11-06T21:15:27.548Z,8.50
2018-11-06T21:17:56.078Z,8.60
2018-11-06T21:20:24.391Z,8.60
2018-11-06T21:22:52.756Z,8.60
2018-11-06T21:25:22.382Z,8.60
2018-11-06T21:27:50.679Z,8.70
2018-11-06T21:30:20.385Z,8.70
2018-11-06T21:32:50.040Z,8.70
2018-11-06T21:35:18.905Z,8.80
2018-11-06T21:37:47.588Z,8.90
2018-11-06T21:40:17.555Z,8.80
2018-11-06T21:42:46.712Z,8.80
2018-11-06T21:45:15.812Z,8.70
2018-11-06T21:47:45.147Z,8.70
2018-11-06T21:50:14.460Z,8.80
2018-11-06T21:52:44.194Z,8.80
2018-11-06T21:55:14.086Z,8.80
2018-11-06T21:57:42.591Z,8.70
2018-11-06T22:00:13.514Z,8.70
2018-11-06T22:02:42.263Z,8.70
2018-11-06T22:05:12.263Z,8.70
2018-11-06T22:07:41.239Z,8.70
2018-11-06T22:10:11.548Z,8.70
2018-11-06T22:12:40.854Z,8.70
2018-11-06T22:15:10.744Z,8.70
2018-11-06T22:17:39.511Z,8.80
2018-11-06T22:20:10.275Z,8.80
2018-11-06T22:22:40.429Z,8.80
2018-11-06T22:25:08.870Z,8.80
2018-11-06T22:27:37.602Z,8.80
2018-11-06T22:30:08.024Z,8.80
2018-11-06T22:32:36.521Z,8.80
2018-11-06T22:35:06.120Z,8.80
2018-11-06T22:37:34.602Z,8.80
2018-11-06T22:40:03.008Z,8.80
2018-11-06T22:42:31.424Z,8.80
2018-11-06T22:44:59.895Z,8.80
2018-11-06T22:47:28.608Z,8.80
2018-11-06T22:49:57.011Z,8.80
2018-11-06T22:52:26.403Z,8.90
2018-11-06T22:54:54.877Z,8.90
2018-11-06T22:57:23.267Z,8.90
2018-11-06T22:59:51.735Z,8.90
2018-11-06T23:02:20.752Z,8.90
2018-11-06T23:04:49.155Z,8.90
2018-11-06T23:07:23.036Z,8.90
2018-11-06T23:09:51.427Z,8.90
2018-11-06T23:12:20.427Z,8.90
2018-11-06T23:14:48.818Z,8.90
2018-11-06T23:17:17.534Z,8.90
2018-11-06T23:19:45.948Z,8.90
2018-11-06T23:22:14.371Z,8.90
2018-11-06T23:24:42.727Z,8.90
2018-11-06T23:27:11.184Z,9.00
2018-11-06T23:29:39.619Z,9.00
2018-11-06T23:32:08.020Z,9.00
2018-11-06T23:34:37.112Z,9.00
2018-11-06T23:37:05.571Z,9.00
2018-11-06T23:39:33.919Z,9.00
2018-11-06T23:42:02.389Z,9.10
2018-11-06T23:44:30.756Z,9.10
2018-11-06T23:46:59.176Z,9.10
2018-11-06T23:49:27.628Z,9.10
2018-11-06T23:51:56.090Z,9.10
2018-11-06T23:54:24.468Z,9.10
2018-11-06T23:56:52.912Z,9.10
2018-11-06T23:59:21.337Z,9.10
